Time;durP1;ratioP1;P1;durP2;ratioP2;P2;SDS_P1;SDS_P2;PMS_P1;PMS_P2;Temp;Humidity;BMP_temperature;BMP_pressure;BME280_temperature;BME280_humidity;BME280_pressure;Samples;Min_cycle;Max_cycle;Signal;HPM_P1;HPM_P2
2022/07/17 00:00:19;;;;;;;5.93;2.20;;;11.20;99.90;;;;;;5035996;28;20055;-75
2022/07/17 00:02:45;;;;;;;4.78;2.13;;;11.20;99.90;;;;;;5045420;28;20056;-76
2022/07/17 00:05:10;;;;;;;4.88;2.10;;;11.20;99.90;;;;;;5057888;28;20591;-75
2022/07/17 00:07:36;;;;;;;5.72;1.92;;;11.10;99.90;;;;;;5034838;28;20094;-75
2022/07/17 00:10:04;;;;;;;6.15;1.90;;;11.20;99.90;;;;;;5053795;28;20044;-76
2022/07/17 00:12:29;;;;;;;6.38;2.30;;;11.20;99.90;;;;;;5031921;28;20075;-77
2022/07/17 00:14:55;;;;;;;5.50;2.60;;;11.10;99.90;;;;;;5028297;28;20067;-76
2022/07/17 00:17:21;;;;;;;6.30;2.20;;;11.10;99.90;;;;;;5050823;28;20402;-76
2022/07/17 00:19:47;;;;;;;8.32;2.20;;;11.10;99.90;;;;;;5051794;28;20040;-76
2022/07/17 00:22:13;;;;;;;5.47;2.47;;;11.00;99.90;;;;;;5072810;28;20134;-75
2022/07/17 00:24:39;;;;;;;5.72;2.78;;;11.00;99.90;;;;;;5062475;28;20033;-75
2022/07/17 00:27:05;;;;;;;6.10;2.60;;;11.00;99.90;;;;;;5050614;28;20112;-76
2022/07/17 00:29:30;;;;;;;8.73;3.17;;;11.00;99.90;;;;;;5049404;28;20177;-76
2022/07/17 00:31:57;;;;;;;6.10;3.38;;;10.90;99.90;;;;;;5044153;28;20578;-76
2022/07/17 00:34:25;;;;;;;8.52;4.10;;;10.90;99.90;;;;;;5062154;28;20052;-76
2022/07/17 00:36:51;;;;;;;6.00;2.88;;;10.80;99.90;;;;;;5043757;28;20048;-76
2022/07/17 00:39:17;;;;;;;4.53;2.70;;;10.70;99.90;;;;;;5068558;28;20049;-76
2022/07/17 00:41:44;;;;;;;6.22;2.72;;;10.70;99.90;;;;;;5063028;28;20093;-76
2022/07/17 00:44:11;;;;;;;7.68;3.63;;;10.70;99.90;;;;;;5045034;28;20095;-76
2022/07/17 00:46:38;;;;;;;6.65;2.95;;;10.70;99.90;;;;;;5065088;28;20060;-75
2022/07/17 00:49:05;;;;;;;6.82;3.10;;;10.60;99.90;;;;;;5046870;28;20141;-75
2022/07/17 00:51:31;;;;;;;7.78;3.47;;;10.50;99.90;;;;;;5029288;28;20043;-76
2022/07/17 00:53:58;;;;;;;5.63;2.85;;;10.50;99.90;;;;;;5064360;28;20131;-76
2022/07/17 00:56:25;;;;;;;3.92;2.15;;;10.60;99.90;;;;;;5066148;28;20060;-77
2022/07/17 00:58:51;;;;;;;4.72;2.40;;;10.50;99.90;;;;;;5057035;28;20040;-76
2022/07/17 01:01:17;;;;;;;5.38;2.80;;;10.50;99.90;;;;;;5065075;28;20036;-77
2022/07/17 01:03:44;;;;;;;7.88;2.83;;;10.50;99.90;;;;;;5068047;28;20052;-76
2022/07/17 01:06:09;;;;;;;6.13;2.95;;;10.50;99.90;;;;;;5071908;28;20392;-76
2022/07/17 01:08:36;;;;;;;6.93;3.17;;;10.50;99.90;;;;;;5052652;28;20052;-76
2022/07/17 01:11:07;;;;;;;5.65;2.97;;;10.40;99.90;;;;;;5064383;28;20119;-77
2022/07/17 01:13:33;;;;;;;8.25;3.80;;;10.40;99.90;;;;;;5063068;28;20044;-76
2022/07/17 01:16:00;;;;;;;8.63;3.17;;;10.40;99.90;;;;;;5052601;28;20089;-77
2022/07/17 01:18:25;;;;;;;3.58;2.40;;;10.30;99.90;;;;;;5050697;28;20157;-77
2022/07/17 01:20:51;;;;;;;5.93;2.67;;;10.30;99.90;;;;;;5029217;28;20094;-77
2022/07/17 01:23:18;;;;;;;6.82;2.80;;;10.20;99.90;;;;;;5054409;28;20070;-77
2022/07/17 01:25:45;;;;;;;4.88;2.80;;;10.20;99.90;;;;;;5071065;28;20032;-77
2022/07/17 01:28:11;;;;;;;4.85;2.60;;;10.20;99.90;;;;;;5049224;28;20033;-77
2022/07/17 01:30:45;;;;;;;8.02;3.40;;;10.20;99.90;;;;;;5049400;28;20047;-76
2022/07/17 01:33:11;;;;;;;7.00;3.92;;;10.20;99.90;;;;;;5043235;28;20040;-76
2022/07/17 01:35:37;;;;;;;7.72;4.10;;;10.10;99.90;;;;;;5045208;28;20044;-76
2022/07/17 01:38:03;;;;;;;6.82;4.38;;;10.10;99.90;;;;;;5060192;28;20048;-76
2022/07/17 01:40:29;;;;;;;8.98;5.07;;;10.00;99.90;;;;;;5046175;28;20510;-76
2022/07/17 01:42:55;;;;;;;8.90;4.80;;;9.90;99.90;;;;;;5067087;28;20049;-75
2022/07/17 01:45:21;;;;;;;7.22;3.80;;;9.80;99.90;;;;;;5061296;28;20499;-75
2022/07/17 01:47:47;;;;;;;6.63;4.07;;;9.80;99.90;;;;;;5062131;28;20463;-75
2022/07/17 01:50:16;;;;;;;7.00;4.88;;;9.70;99.90;;;;;;5063500;28;20403;-76
2022/07/17 01:52:44;;;;;;;9.57;4.60;;;9.70;99.90;;;;;;5067519;28;20048;-76
2022/07/17 01:55:12;;;;;;;7.90;4.22;;;9.70;99.90;;;;;;5070331;28;20048;-77
2022/07/17 01:57:39;;;;;;;8.27;3.28;;;9.60;99.90;;;;;;5044124;28;20045;-77
2022/07/17 02:00:10;;;;;;;7.65;3.85;;;9.60;99.90;;;;;;5067376;28;20032;-77
2022/07/17 02:02:36;;;;;;;6.18;3.17;;;9.70;99.90;;;;;;5045954;28;20070;-77
2022/07/17 02:05:02;;;;;;;5.75;3.05;;;9.70;99.90;;;;;;5030812;28;20037;-76
2022/07/17 02:07:28;;;;;;;8.05;3.03;;;9.80;99.90;;;;;;5046064;28;20135;-77
2022/07/17 02:09:54;;;;;;;6.90;3.28;;;9.80;99.90;;;;;;5056060;28;20124;-76
2022/07/17 02:12:19;;;;;;;4.03;2.92;;;9.80;99.90;;;;;;5026357;28;20106;-77
2022/07/17 02:14:45;;;;;;;7.20;3.47;;;9.90;99.90;;;;;;5039430;28;20076;-76
2022/07/17 02:17:11;;;;;;;7.80;3.67;;;9.90;99.90;;;;;;5037465;28;20045;-77
2022/07/17 02:19:37;;;;;;;8.25;4.10;;;9.90;99.90;;;;;;5042731;28;20044;-77
2022/07/17 02:22:03;;;;;;;6.82;3.28;;;10.00;99.90;;;;;;5059549;28;20041;-76
2022/07/17 02:24:28;;;;;;;7.13;3.75;;;10.00;99.90;;;;;;5025634;28;20041;-76
2022/07/17 02:26:54;;;;;;;4.97;3.10;;;10.00;99.90;;;;;;5060712;28;20097;-77
2022/07/17 02:29:20;;;;;;;6.15;3.38;;;9.90;99.90;;;;;;5042583;28;20076;-77
2022/07/17 02:31:46;;;;;;;6.82;3.60;;;10.00;99.90;;;;;;5047967;28;20102;-77
2022/07/17 02:34:12;;;;;;;6.00;3.47;;;10.00;99.90;;;;;;5026558;28;20049;-77
2022/07/17 02:36:38;;;;;;;7.75;3.85;;;9.90;99.90;;;;;;5041764;28;20476;-77
2022/07/17 02:39:04;;;;;;;6.28;3.72;;;9.90;99.90;;;;;;5046706;28;20083;-76
2022/07/17 02:41:30;;;;;;;8.43;4.25;;;9.90;99.90;;;;;;5047560;28;20468;-76
2022/07/17 02:43:56;;;;;;;7.13;3.75;;;9.90;99.90;;;;;;5042745;28;20131;-76
2022/07/17 02:46:21;;;;;;;7.32;3.47;;;9.90;99.90;;;;;;5063589;28;20393;-76
2022/07/17 02:48:47;;;;;;;9.40;4.90;;;9.90;99.90;;;;;;5066170;28;20470;-77
2022/07/17 02:51:13;;;;;;;9.15;4.25;;;9.90;99.90;;;;;;5032125;28;20055;-77
2022/07/17 02:53:39;;;;;;;6.97;4.50;;;9.90;99.90;;;;;;5058940;28;20064;-77
2022/07/17 02:56:05;;;;;;;8.35;4.13;;;9.90;99.90;;;;;;5013874;28;20048;-76
2022/07/17 02:58:31;;;;;;;6.00;4.50;;;9.80;99.90;;;;;;5049208;28;20044;-77
2022/07/17 03:00:57;;;;;;;9.60;4.88;;;9.80;99.90;;;;;;5068134;28;20036;-77
2022/07/17 03:03:23;;;;;;;8.75;4.97;;;9.80;99.90;;;;;;5037659;28;20059;-77
2022/07/17 03:05:49;;;;;;;6.85;4.25;;;9.70;99.90;;;;;;5030246;28;20040;-76
2022/07/17 03:08:18;;;;;;;8.30;5.88;;;9.80;99.90;;;;;;5039933;28;20052;-77
2022/07/17 03:10:44;;;;;;;13.68;7.72;;;9.80;99.90;;;;;;5079487;28;20927;-77
2022/07/17 03:13:09;;;;;;;7.10;4.40;;;9.70;99.90;;;;;;5051355;28;20048;-76
2022/07/17 03:15:35;;;;;;;6.88;4.18;;;9.60;99.90;;;;;;5046823;28;20044;-76
2022/07/17 03:18:01;;;;;;;8.77;5.10;;;9.60;99.90;;;;;;5051276;28;20114;-76
2022/07/17 03:20:26;;;;;;;7.13;4.40;;;9.60;99.90;;;;;;5030365;28;20075;-76
2022/07/17 03:22:53;;;;;;;9.98;4.00;;;9.60;99.90;;;;;;5031344;28;20037;-76
2022/07/17 03:25:19;;;;;;;6.53;3.65;;;9.60;99.90;;;;;;5040303;28;20052;-77
2022/07/17 03:27:44;;;;;;;7.90;3.97;;;9.60;99.90;;;;;;5063966;28;20568;-76
2022/07/17 03:30:13;;;;;;;5.15;3.33;;;9.60;99.90;;;;;;5049539;28;20044;-76
2022/07/17 03:32:39;;;;;;;6.53;3.75;;;9.60;99.90;;;;;;5047948;28;20071;-77
2022/07/17 03:35:05;;;;;;;5.32;3.28;;;9.50;99.90;;;;;;5065450;28;20037;-77
2022/07/17 03:37:31;;;;;;;5.95;3.38;;;9.50;99.90;;;;;;5063173;28;20044;-76
2022/07/17 03:39:57;;;;;;;5.00;2.85;;;9.50;99.90;;;;;;5065227;28;20037;-77
2022/07/17 03:42:23;;;;;;;6.97;3.20;;;9.50;99.90;;;;;;5024187;28;20147;-77
2022/07/17 03:44:53;;;;;;;4.75;2.90;;;9.40;99.90;;;;;;5030997;28;20094;-77
2022/07/17 03:47:19;;;;;;;7.55;3.65;;;9.40;99.90;;;;;;5059797;28;20048;-76
2022/07/17 03:49:44;;;;;;;4.88;3.30;;;9.40;99.90;;;;;;5016495;28;20037;-77
2022/07/17 03:52:10;;;;;;;6.22;3.70;;;9.40;99.90;;;;;;5046512;28;20049;-76
2022/07/17 03:54:36;;;;;;;5.32;3.40;;;9.40;99.90;;;;;;5035028;28;20071;-76
2022/07/17 03:57:02;;;;;;;8.05;4.90;;;9.40;99.90;;;;;;5048790;28;20044;-77
2022/07/17 03:59:28;;;;;;;9.02;6.03;;;9.40;99.90;;;;;;5041049;28;20483;-77
2022/07/17 04:01:54;;;;;;;10.20;6.88;;;9.30;99.90;;;;;;5045510;28;20054;-76
2022/07/17 04:04:20;;;;;;;11.23;7.18;;;9.30;99.90;;;;;;5060316;28;20091;-77
2022/07/17 04:06:46;;;;;;;12.18;7.75;;;9.20;99.90;;;;;;5045432;28;20095;-77
2022/07/17 04:09:12;;;;;;;9.65;5.65;;;9.10;99.90;;;;;;5032332;28;20068;-76
2022/07/17 04:11:37;;;;;;;7.50;5.30;;;9.10;99.90;;;;;;5033337;28;20044;-77
2022/07/17 04:14:03;;;;;;;8.57;5.70;;;9.20;99.90;;;;;;5034475;28;20068;-77
2022/07/17 04:16:29;;;;;;;9.05;5.32;;;9.30;99.90;;;;;;5065887;28;20084;-77
2022/07/17 04:18:58;;;;;;;12.60;7.82;;;9.40;99.90;;;;;;5039106;28;20040;-77
2022/07/17 04:21:24;;;;;;;12.30;8.50;;;9.50;99.90;;;;;;5064320;28;20048;-77
2022/07/17 04:23:50;;;;;;;9.20;7.60;;;9.50;99.90;;;;;;5031439;28;20459;-77
2022/07/17 04:26:16;;;;;;;7.55;4.85;;;9.50;99.90;;;;;;5052276;28;20048;-77
2022/07/17 04:28:42;;;;;;;6.07;4.55;;;9.60;99.90;;;;;;5041110;28;20142;-77
2022/07/17 04:31:08;;;;;;;8.00;5.30;;;9.60;99.90;;;;;;5060450;28;20120;-77
2022/07/17 04:33:34;;;;;;;12.10;6.38;;;9.70;99.90;;;;;;5044872;28;20044;-77
2022/07/17 04:36:00;;;;;;;9.77;5.30;;;9.80;99.90;;;;;;5029774;28;20040;-77
2022/07/17 04:38:26;;;;;;;6.82;4.95;;;9.80;99.90;;;;;;5061270;28;20040;-78
2022/07/17 04:40:51;;;;;;;7.03;5.38;;;9.90;99.90;;;;;;5030812;28;20123;-77
2022/07/17 04:43:18;;;;;;;8.13;5.03;;;10.00;99.90;;;;;;5044543;28;20060;-77
2022/07/17 04:45:44;;;;;;;7.20;4.80;;;10.10;99.90;;;;;;5065507;28;20124;-76
2022/07/17 04:48:10;;;;;;;11.07;4.80;;;10.20;99.90;;;;;;5062389;28;20131;-77
2022/07/17 04:50:36;;;;;;;6.25;4.68;;;10.20;99.90;;;;;;5059945;28;20080;-77
2022/07/17 04:53:02;;;;;;;8.90;6.15;;;10.30;99.90;;;;;;5044267;28;20632;-77
2022/07/17 04:55:28;;;;;;;8.63;5.47;;;10.30;99.90;;;;;;5049039;28;20144;-77
2022/07/17 04:57:54;;;;;;;12.63;6.68;;;10.40;99.90;;;;;;5054059;28;20048;-77
2022/07/17 05:00:20;;;;;;;9.95;7.22;;;10.50;99.90;;;;;;5047202;28;20803;-77
2022/07/17 05:02:45;;;;;;;11.80;5.72;;;10.50;99.90;;;;;;5047874;28;20040;-77
2022/07/17 05:05:11;;;;;;;9.60;5.53;;;10.60;99.90;;;;;;5047897;28;20048;-77
2022/07/17 05:07:37;;;;;;;7.35;5.18;;;10.70;99.90;;;;;;5040573;28;20068;-77
2022/07/17 05:10:04;;;;;;;9.23;6.28;;;10.70;99.90;;;;;;5042209;28;20059;-77
2022/07/17 05:12:30;;;;;;;10.25;5.28;;;10.80;99.90;;;;;;5057405;28;20066;-77
2022/07/17 05:14:56;;;;;;;9.10;6.45;;;10.80;99.90;;;;;;5042552;28;20501;-77
2022/07/17 05:17:22;;;;;;;8.18;6.20;;;10.90;99.90;;;;;;5048431;28;20412;-77
2022/07/17 05:19:48;;;;;;;8.75;5.65;;;10.90;99.90;;;;;;5036262;28;20048;-77
2022/07/17 05:22:14;;;;;;;9.07;5.30;;;11.00;99.90;;;;;;5026710;28;20052;-77
2022/07/17 05:24:39;;;;;;;10.98;5.93;;;11.10;99.90;;;;;;5015070;28;20511;-78
2022/07/17 05:27:05;;;;;;;10.20;6.43;;;11.10;99.90;;;;;;5061263;28;20089;-77
2022/07/17 05:29:31;;;;;;;8.80;5.68;;;11.20;99.90;;;;;;5039928;28;20083;-77
2022/07/17 05:31:58;;;;;;;11.63;5.78;;;11.20;99.90;;;;;;5030370;28;20106;-77
2022/07/17 05:34:24;;;;;;;8.55;5.13;;;11.30;99.90;;;;;;5031431;28;20056;-77
2022/07/17 05:36:53;;;;;;;7.97;4.47;;;11.30;99.90;;;;;;5047620;28;20040;-78
2022/07/17 05:39:19;;;;;;;10.40;4.85;;;11.40;99.90;;;;;;5032160;28;20034;-77
2022/07/17 05:41:45;;;;;;;8.25;5.07;;;11.50;99.90;;;;;;5030301;28;20131;-77
2022/07/17 05:44:11;;;;;;;9.15;5.80;;;11.60;99.90;;;;;;5066788;28;20506;-77
2022/07/17 05:46:36;;;;;;;8.02;4.53;;;11.60;99.90;;;;;;5033918;28;20078;-78
2022/07/17 05:49:02;;;;;;;8.68;4.50;;;11.70;99.90;;;;;;5052732;28;20094;-78
2022/07/17 05:51:28;;;;;;;8.85;5.07;;;11.70;99.90;;;;;;5048282;28;20066;-78
2022/07/17 05:53:54;;;;;;;7.50;4.30;;;11.80;99.90;;;;;;5046751;28;20043;-77
2022/07/17 05:56:20;;;;;;;9.25;5.22;;;11.90;99.90;;;;;;5039836;28;20063;-78
2022/07/17 05:58:45;;;;;;;7.32;4.22;;;12.00;99.90;;;;;;5043271;28;20076;-77
2022/07/17 06:01:11;;;;;;;9.18;4.70;;;12.00;99.90;;;;;;5026026;28;20123;-78
2022/07/17 06:03:37;;;;;;;8.20;4.22;;;12.10;99.90;;;;;;5041943;28;20044;-78
2022/07/17 06:06:03;;;;;;;6.30;3.80;;;12.20;99.90;;;;;;5044247;28;20570;-76
2022/07/17 06:08:28;;;;;;;8.32;3.85;;;12.30;99.90;;;;;;5042779;28;20044;-76
2022/07/17 06:10:54;;;;;;;9.25;4.35;;;12.30;99.90;;;;;;5055536;28;20143;-78
2022/07/17 06:13:20;;;;;;;8.57;4.25;;;12.40;99.90;;;;;;5049999;28;20040;-78
2022/07/17 06:15:46;;;;;;;8.57;4.05;;;12.50;99.90;;;;;;5044014;28;20174;-79
2022/07/17 06:18:12;;;;;;;8.85;3.90;;;12.50;99.90;;;;;;5049445;28;20131;-78
2022/07/17 06:20:37;;;;;;;8.48;3.95;;;12.60;99.90;;;;;;5025404;28;20543;-78
2022/07/17 06:23:03;;;;;;;8.00;4.20;;;12.70;99.90;;;;;;5049829;28;20040;-78
2022/07/17 06:25:35;;;;;;;5.45;3.03;;;12.70;99.90;;;;;;5061459;28;20045;-79
2022/07/17 06:28:01;;;;;;;6.35;2.90;;;12.80;99.90;;;;;;5034960;28;20047;-79
2022/07/17 06:30:27;;;;;;;8.80;3.20;;;12.90;99.90;;;;;;5045155;28;20048;-79
2022/07/17 06:32:59;;;;;;;9.25;2.80;;;13.00;99.90;;;;;;5021068;28;20533;-78
2022/07/17 06:35:24;;;;;;;5.78;2.10;;;13.20;99.90;;;;;;5050471;28;20047;-78
2022/07/17 06:37:50;;;;;;;9.18;3.05;;;13.30;99.90;;;;;;5054563;28;20426;-79
2022/07/17 06:40:16;;;;;;;4.43;2.03;;;13.40;99.90;;;;;;5039840;28;20052;-79
2022/07/17 06:42:42;;;;;;;5.38;1.98;;;13.50;99.90;;;;;;5033576;28;20055;-78
2022/07/17 06:45:08;;;;;;;5.63;1.80;;;13.60;99.90;;;;;;5015150;28;20045;-79
2022/07/17 06:47:34;;;;;;;4.78;1.58;;;13.80;99.90;;;;;;5049797;28;20041;-83
2022/07/17 06:50:02;;;;;;;5.70;1.33;;;13.90;99.90;;;;;;5051460;28;20545;-83
2022/07/17 06:52:28;;;;;;;6.22;1.58;;;14.10;99.90;;;;;;5057014;28;20130;-83
2022/07/17 06:54:54;;;;;;;7.88;1.73;;;14.20;99.90;;;;;;5054746;28;20131;-83
2022/07/17 06:57:20;;;;;;;7.45;1.30;;;14.40;99.90;;;;;;5034722;28;20546;-83
2022/07/17 06:59:46;;;;;;;6.75;1.60;;;14.50;99.90;;;;;;5047204;28;20043;-83
2022/07/17 07:02:11;;;;;;;10.20;1.52;;;14.70;99.90;;;;;;5049856;28;20040;-78
2022/07/17 07:04:37;;;;;;;7.30;1.38;;;14.80;99.90;;;;;;5049780;28;20040;-78
2022/07/17 07:07:03;;;;;;;5.00;1.10;;;15.00;99.90;;;;;;5051315;28;20036;-78
2022/07/17 07:09:32;;;;;;;4.45;1.10;;;15.10;99.90;;;;;;5036682;28;20133;-78
2022/07/17 07:11:58;;;;;;;7.45;1.45;;;15.30;99.90;;;;;;5046098;28;20055;-78
2022/07/17 07:14:24;;;;;;;7.63;1.40;;;15.30;99.90;;;;;;5045527;28;20499;-79
2022/07/17 07:16:50;;;;;;;8.18;1.88;;;15.30;99.90;;;;;;5016269;28;20487;-79
2022/07/17 07:19:15;;;;;;;4.32;1.40;;;15.40;99.90;;;;;;5015638;28;20047;-79
2022/07/17 07:21:41;;;;;;;5.53;1.58;;;15.40;99.90;;;;;;5056069;28;20036;-79
2022/07/17 07:24:07;;;;;;;6.07;1.40;;;15.50;99.90;;;;;;5047452;28;20040;-78
2022/07/17 07:26:33;;;;;;;7.85;1.92;;;15.50;99.90;;;;;;5050989;28;20037;-78
2022/07/17 07:28:59;;;;;;;3.92;1.40;;;15.60;99.90;;;;;;5034012;28;20424;-78
2022/07/17 07:31:25;;;;;;;10.43;2.10;;;15.70;99.90;;;;;;5031099;28;20040;-79
2022/07/17 07:33:50;;;;;;;6.93;1.65;;;15.80;99.90;;;;;;5052738;28;20063;-78
2022/07/17 07:36:16;;;;;;;6.20;1.30;;;15.90;99.90;;;;;;5046555;28;20040;-78
2022/07/17 07:38:42;;;;;;;5.68;1.20;;;16.00;99.90;;;;;;5009372;28;20115;-77
2022/07/17 07:41:08;;;;;;;5.97;1.30;;;16.10;99.90;;;;;;5044208;28;20098;-78
2022/07/17 07:43:33;;;;;;;8.52;1.60;;;16.20;99.90;;;;;;5058910;28;20316;-78
2022/07/17 07:45:59;;;;;;;6.70;1.23;;;16.40;99.90;;;;;;5063508;28;20048;-78
2022/07/17 07:48:25;;;;;;;8.88;1.60;;;16.40;99.90;;;;;;5047091;28;20048;-78
2022/07/17 07:50:51;;;;;;;5.75;1.20;;;16.50;99.90;;;;;;5061364;28;20054;-77
2022/07/17 07:53:16;;;;;;;5.55;1.52;;;16.60;99.90;;;;;;5043875;28;20074;-78
2022/07/17 07:55:42;;;;;;;4.38;1.00;;;16.60;99.90;;;;;;5027537;28;20369;-77
2022/07/17 07:58:10;;;;;;;5.22;1.40;;;16.60;99.90;;;;;;5044067;28;20036;-78
2022/07/17 08:00:38;;;;;;;4.80;1.02;;;16.70;99.90;;;;;;5063511;28;20616;-78
2022/07/17 08:03:04;;;;;;;4.93;1.48;;;16.80;99.90;;;;;;5046513;28;20058;-78
2022/07/17 08:05:31;;;;;;;6.13;1.33;;;16.90;99.90;;;;;;5054264;28;20045;-78
2022/07/17 08:07:57;;;;;;;4.63;1.15;;;16.90;99.90;;;;;;5027629;28;20106;-78
2022/07/17 08:10:26;;;;;;;4.32;1.00;;;17.00;99.90;;;;;;5064394;28;20331;-77
2022/07/17 08:12:52;;;;;;;6.40;1.05;;;17.20;99.90;;;;;;5052667;28;20706;-77
2022/07/17 08:15:20;;;;;;;3.58;1.02;;;17.30;99.90;;;;;;5083122;28;20055;-78
2022/07/17 08:17:48;;;;;;;5.60;0.90;;;17.60;99.90;;;;;;5062354;28;20048;-78
2022/07/17 08:20:15;;;;;;;6.95;1.65;;;17.70;99.90;;;;;;5031365;28;20059;-78
2022/07/17 08:22:42;;;;;;;4.93;1.15;;;17.90;99.90;;;;;;5035022;28;20070;-77
2022/07/17 08:25:08;;;;;;;4.38;0.70;;;18.10;99.90;;;;;;5047746;28;20474;-78
2022/07/17 08:27:36;;;;;;;4.53;1.00;;;18.30;99.90;;;;;;5025531;28;20037;-77
2022/07/17 08:30:04;;;;;;;5.43;1.10;;;18.50;99.90;;;;;;5046186;28;20122;-78
2022/07/17 08:32:30;;;;;;;3.22;1.00;;;18.60;99.90;;;;;;5047466;28;20056;-78
2022/07/17 08:34:55;;;;;;;6.90;1.48;;;18.60;99.90;;;;;;5063244;28;20090;-79
2022/07/17 08:37:21;;;;;;;5.60;1.35;;;18.60;99.90;;;;;;5047631;28;20055;-78
2022/07/17 08:39:47;;;;;;;3.92;1.08;;;18.60;99.90;;;;;;5043821;28;20695;-77
2022/07/17 08:42:16;;;;;;;5.70;1.52;;;18.60;99.90;;;;;;5041934;28;20048;-78
2022/07/17 08:44:45;;;;;;;6.47;1.20;;;18.60;99.90;;;;;;5021063;28;20140;-78
2022/07/17 08:47:12;;;;;;;4.05;0.90;;;18.70;99.90;;;;;;5059127;28;20083;-78
2022/07/17 08:49:43;;;;;;;3.97;0.80;;;18.80;99.90;;;;;;5055109;28;20048;-78
2022/07/17 08:52:10;;;;;;;4.10;1.10;;;19.00;99.90;;;;;;5047426;28;20513;-78
2022/07/17 08:54:36;;;;;;;5.57;0.90;;;19.10;99.90;;;;;;5028543;28;20044;-78
2022/07/17 08:57:03;;;;;;;7.63;1.30;;;19.20;99.90;;;;;;5030211;28;20404;-78
2022/07/17 08:59:29;;;;;;;5.68;1.27;;;19.30;99.90;;;;;;5029087;28;20083;-78
2022/07/17 09:01:55;;;;;;;4.80;1.00;;;19.40;99.90;;;;;;5046369;28;20048;-78
2022/07/17 09:04:21;;;;;;;4.70;1.10;;;19.40;99.90;;;;;;5027635;28;20531;-78
2022/07/17 09:06:57;;;;;;;3.58;0.70;;;19.50;99.20;;;;;;5063076;28;20048;-77
2022/07/17 09:09:25;;;;;;;3.72;1.10;;;19.30;99.70;;;;;;5042997;28;20051;-77
2022/07/17 09:11:54;;;;;;;4.00;1.08;;;19.50;99.90;;;;;;5033546;28;20442;-78
2022/07/17 09:14:20;;;;;;;3.80;0.80;;;19.60;99.90;;;;;;5063722;28;20052;-77
2022/07/17 09:16:55;;;;;;;4.55;1.00;;;19.70;99.90;;;;;;5048399;28;20049;-78
2022/07/17 09:19:36;;;;;;;5.03;1.35;;;19.80;99.10;;;;;;5064086;28;20036;-77
2022/07/17 09:22:14;;;;;;;4.22;1.20;;;19.90;99.90;;;;;;5058428;28;20620;-77
2022/07/17 09:24:56;;;;;;;4.35;1.00;;;20.00;98.90;;;;;;5050026;28;20053;-76
2022/07/17 09:27:32;;;;;;;6.18;1.10;;;20.10;98.30;;;;;;5035593;28;20055;-76
2022/07/17 09:30:11;;;;;;;4.57;1.10;;;20.20;97.30;;;;;;5038569;28;20539;-77
2022/07/17 09:32:41;;;;;;;3.58;1.13;;;20.20;96.30;;;;;;5051184;28;20056;-77
2022/07/17 09:35:11;;;;;;;3.85;0.80;;;20.20;97.00;;;;;;5047054;28;20106;-77
2022/07/17 09:37:38;;;;;;;5.03;1.35;;;20.30;97.20;;;;;;5044028;28;20057;-77
2022/07/17 09:42:59;;;;;;;3.95;1.30;;;20.70;98.90;;;;;;5055409;28;20051;-77
2022/07/17 09:45:25;;;;;;;3.53;1.10;;;21.00;99.90;;;;;;5041738;28;20048;-77
2022/07/17 09:47:53;;;;;;;5.15;1.70;;;21.00;95.50;;;;;;5055024;28;20411;-77
2022/07/17 09:50:19;;;;;;;3.03;1.20;;;21.10;94.80;;;;;;5033274;28;20041;-77
2022/07/17 09:52:47;;;;;;;4.40;1.40;;;21.10;96.10;;;;;;5026889;28;20404;-77
2022/07/17 09:55:14;;;;;;;4.20;1.23;;;21.10;94.70;;;;;;5056584;28;20387;-77
2022/07/17 09:57:41;;;;;;;3.40;1.20;;;21.20;93.20;;;;;;5028793;28;20041;-76
2022/07/17 10:00:12;;;;;;;3.13;1.30;;;21.30;92.60;;;;;;5060366;28;20127;-75
2022/07/17 10:02:42;;;;;;;4.60;1.20;;;21.40;91.60;;;;;;5046029;28;20399;-74
2022/07/17 10:05:15;;;;;;;5.07;1.48;;;21.60;90.80;;;;;;5054438;28;20056;-74
2022/07/17 10:07:45;;;;;;;4.25;1.40;;;21.60;90.70;;;;;;5041454;28;20394;-74
2022/07/17 10:10:12;;;;;;;;;;;21.80;89.50;;;;;;5048037;28;20068;-76
2022/07/17 10:12:40;;;;;;;3.95;1.30;;;21.90;90.20;;;;;;5061438;28;20081;-76
2022/07/17 10:15:07;;;;;;;1.98;0.95;;;22.00;87.60;;;;;;5058876;28;20044;-76
2022/07/17 10:17:33;;;;;;;2.72;1.20;;;22.00;83.70;;;;;;5057051;28;20040;-76
2022/07/17 10:19:59;;;;;;;4.45;1.15;;;21.90;82.40;;;;;;5061618;28;20531;-76
2022/07/17 10:22:26;;;;;;;2.60;1.10;;;21.80;82.10;;;;;;5060529;28;20040;-77
2022/07/17 10:24:57;;;;;;;4.70;1.30;;;21.80;83.00;;;;;;5053104;28;20576;-76
2022/07/17 10:27:29;;;;;;;3.80;1.33;;;21.90;78.40;;;;;;5045294;28;20036;-77
2022/07/17 10:30:10;;;;;;;2.95;1.20;;;21.80;78.40;;;;;;5042822;28;20399;-77
2022/07/17 10:32:37;;;;;;;3.80;1.40;;;21.80;84.60;;;;;;5060461;28;20044;-78
2022/07/17 10:35:09;;;;;;;3.75;1.23;;;21.90;83.70;;;;;;5045454;28;20045;-77
2022/07/17 10:37:35;;;;;;;2.53;1.00;;;22.00;83.40;;;;;;5060452;28;20126;-77
2022/07/17 10:40:11;;;;;;;4.07;1.25;;;22.10;81.00;;;;;;5061228;28;20044;-77
2022/07/17 10:42:59;;;;;;;5.25;1.00;;;22.10;86.20;;;;;;5058858;28;20045;-77
2022/07/17 10:45:38;;;;;;;3.90;1.33;;;22.30;85.90;;;;;;5040858;28;20803;-77
2022/07/17 10:48:09;;;;;;;3.27;1.23;;;22.40;90.50;;;;;;5052331;28;20090;-77
2022/07/17 10:50:39;;;;;;;2.85;1.10;;;22.60;84.40;;;;;;5036780;28;20040;-77
2022/07/17 10:53:07;;;;;;;3.80;1.48;;;22.50;82.20;;;;;;5059960;28;20570;-77
2022/07/17 10:55:35;;;;;;;2.92;1.17;;;22.60;84.90;;;;;;5055893;28;20051;-77
2022/07/17 10:58:01;;;;;;;3.10;1.20;;;22.70;82.50;;;;;;5041085;28;20053;-76
2022/07/17 11:00:27;;;;;;;3.78;1.30;;;22.70;78.30;;;;;;5025223;28;20345;-78
2022/07/17 11:02:53;;;;;;;3.38;1.30;;;22.70;76.00;;;;;;5026722;28;20033;-77
2022/07/17 11:05:19;;;;;;;3.65;1.50;;;22.80;75.90;;;;;;5035365;28;20425;-78
2022/07/17 11:07:59;;;;;;;4.18;1.30;;;22.70;75.20;;;;;;5040054;28;20135;-78
2022/07/17 11:10:27;;;;;;;2.92;1.30;;;22.60;74.90;;;;;;5043019;28;20080;-77
2022/07/17 11:13:06;;;;;;;5.38;1.30;;;22.60;76.00;;;;;;5039233;28;20151;-78
2022/07/17 11:15:41;;;;;;;4.35;1.40;;;22.60;77.50;;;;;;5053314;28;20056;-78
2022/07/17 11:18:16;;;;;;;3.65;1.40;;;22.80;74.30;;;;;;5057058;28;20040;-78
2022/07/17 11:20:48;;;;;;;3.38;1.30;;;22.90;78.10;;;;;;5046524;28;20040;-78
2022/07/17 11:23:14;;;;;;;3.35;1.13;;;23.10;79.90;;;;;;5068782;28;20513;-78
2022/07/17 11:25:50;;;;;;;4.05;1.30;;;23.30;78.30;;;;;;5061908;28;20050;-78
2022/07/17 11:28:27;;;;;;;4.32;1.38;;;23.30;75.40;;;;;;5045039;28;20159;-78
2022/07/17 11:30:53;;;;;;;4.25;1.48;;;23.30;73.50;;;;;;5040845;28;20095;-77
2022/07/17 11:33:19;;;;;;;4.15;1.40;;;23.30;71.10;;;;;;5027093;28;20064;-78
2022/07/17 11:35:46;;;;;;;3.25;1.42;;;23.30;72.60;;;;;;5034315;28;20119;-78
2022/07/17 11:38:12;;;;;;;2.83;1.33;;;23.40;73.90;;;;;;5056478;28;20136;-77
2022/07/17 11:40:48;;;;;;;3.90;1.50;;;23.40;73.60;;;;;;5060164;28;20136;-78
2022/07/17 11:43:14;;;;;;;6.40;1.30;;;23.50;73.10;;;;;;5045088;28;20039;-77
2022/07/17 11:45:44;;;;;;;4.07;1.60;;;23.40;71.20;;;;;;5064428;28;20033;-78
2022/07/17 11:48:10;;;;;;;3.70;1.35;;;23.40;71.20;;;;;;5067693;28;20051;-79
2022/07/17 11:50:36;;;;;;;3.35;1.30;;;23.50;72.20;;;;;;5043461;28;20044;-74
2022/07/17 11:53:04;;;;;;;4.40;1.50;;;23.60;70.90;;;;;;5062233;28;20495;-78
2022/07/17 11:55:37;;;;;;;6.75;1.70;;;23.70;71.10;;;;;;5049306;28;20098;-78
2022/07/17 11:58:02;;;;;;;5.15;1.50;;;23.80;71.20;;;;;;5053312;28;20047;-77
2022/07/17 12:00:29;;;;;;;5.85;1.60;;;24.00;68.40;;;;;;5062765;28;20048;-79
2022/07/17 12:03:02;;;;;;;4.15;1.70;;;24.00;67.20;;;;;;5061475;28;20037;-77
2022/07/17 12:05:31;;;;;;;3.85;1.70;;;24.00;68.30;;;;;;5030963;28;20518;-76
2022/07/17 12:07:57;;;;;;;3.58;1.70;;;24.00;65.40;;;;;;5053365;28;20043;-77
2022/07/17 12:10:28;;;;;;;2.83;1.50;;;24.00;67.30;;;;;;5065194;28;20852;-77
2022/07/17 12:12:57;;;;;;;3.88;1.63;;;24.10;69.30;;;;;;5060109;28;20059;-76
2022/07/17 12:15:42;;;;;;;4.28;1.50;;;24.10;66.40;;;;;;5060845;28;20044;-77
2022/07/17 12:18:27;;;;;;;4.40;1.55;;;24.00;65.40;;;;;;5050691;28;20039;-78
2022/07/17 12:20:59;;;;;;;3.83;1.73;;;24.00;66.10;;;;;;5049241;28;20166;-77
2022/07/17 12:23:39;;;;;;;4.20;1.92;;;24.10;68.00;;;;;;5064546;28;20183;-78
2022/07/17 12:26:12;;;;;;;4.60;2.13;;;24.20;64.80;;;;;;5045382;28;20317;-77
2022/07/17 12:28:38;;;;;;;3.78;1.95;;;24.20;65.00;;;;;;5058182;28;20465;-77
2022/07/17 12:31:06;;;;;;;4.53;2.00;;;24.20;63.30;;;;;;5047028;28;20136;-77
2022/07/17 12:33:32;;;;;;;6.03;2.33;;;24.20;63.70;;;;;;5051135;28;20495;-77
2022/07/17 12:35:58;;;;;;;4.15;2.17;;;24.20;64.20;;;;;;5062405;28;20093;-76
2022/07/17 12:38:24;;;;;;;4.45;2.33;;;24.40;64.90;;;;;;5024563;28;20059;-77
2022/07/17 12:40:50;;;;;;;4.03;1.73;;;24.50;65.40;;;;;;5030028;28;20044;-77
2022/07/17 12:43:16;;;;;;;4.15;1.75;;;24.50;64.20;;;;;;5026190;28;20033;-77
2022/07/17 12:45:42;;;;;;;3.13;1.70;;;24.40;63.80;;;;;;5062027;28;20650;-77
2022/07/17 12:48:08;;;;;;;4.32;1.90;;;24.50;66.50;;;;;;5042209;28;20452;-77
2022/07/17 12:50:34;;;;;;;5.75;2.15;;;24.70;66.90;;;;;;5048192;28;20064;-78